createdAt,value
2023-02-25T00:01:07.908Z,100.00
2023-02-25T00:03:36.227Z,100.00
2023-02-25T00:06:04.566Z,100.00
2023-02-25T00:08:31.762Z,100.00
2023-02-25T00:11:00.798Z,100.00
2023-02-25T00:13:28.020Z,100.00
2023-02-25T00:15:58.192Z,100.00
2023-02-25T00:18:26.885Z,100.00
2023-02-25T00:20:54.078Z,100.00
2023-02-25T00:23:20.908Z,100.00
2023-02-25T00:25:47.706Z,100.00
2023-02-25T00:28:17.870Z,100.00
2023-02-25T00:30:44.817Z,100.00
2023-02-25T00:33:11.917Z,100.00
2023-02-25T00:35:39.883Z,100.00
2023-02-25T00:38:15.759Z,100.00
2023-02-25T00:40:46.020Z,100.00
2023-02-25T00:43:13.373Z,100.00
2023-02-25T00:45:40.797Z,100.00
2023-02-25T00:48:07.945Z,100.00
2023-02-25T00:50:36.101Z,100.00
2023-02-25T00:53:03.481Z,100.00
2023-02-25T00:55:36.262Z,100.00
2023-02-25T00:58:03.216Z,100.00
2023-02-25T01:00:31.558Z,100.00
2023-02-25T01:03:00.946Z,100.00
2023-02-25T01:05:27.831Z,100.00
2023-02-25T01:07:54.698Z,100.00
2023-02-25T01:10:22.216Z,100.00
2023-02-25T01:12:54.928Z,100.00
2023-02-25T01:15:21.571Z,100.00
2023-02-25T01:17:48.268Z,100.00
2023-02-25T01:20:19.388Z,100.00
2023-02-25T01:22:46.294Z,100.00
2023-02-25T01:25:17.085Z,100.00
2023-02-25T01:27:44.164Z,100.00
2023-02-25T01:30:11.576Z,100.00
2023-02-25T01:32:38.364Z,100.00
2023-02-25T01:35:06.000Z,100.00
2023-02-25T01:37:35.670Z,100.00
2023-02-25T01:40:04.402Z,100.00
2023-02-25T01:42:33.236Z,100.00
2023-02-25T01:45:21.725Z,100.00
2023-02-25T01:47:56.585Z,100.00
2023-02-25T01:50:28.466Z,100.00
2023-02-25T01:52:55.155Z,100.00
2023-02-25T01:55:22.051Z,100.00
2023-02-25T01:57:49.889Z,100.00
2023-02-25T02:00:16.918Z,100.00
2023-02-25T02:02:46.757Z,100.00
2023-02-25T02:05:14.701Z,100.00
2023-02-25T02:07:42.181Z,100.00
2023-02-25T02:10:11.651Z,100.00
2023-02-25T02:12:41.364Z,100.00
2023-02-25T02:15:10.522Z,100.00
2023-02-25T02:17:43.260Z,100.00
2023-02-25T02:20:12.415Z,100.00
2023-02-25T02:23:04.462Z,100.00
2023-02-25T02:26:00.781Z,100.00
2023-02-25T02:28:52.195Z,100.00
2023-02-25T02:31:28.100Z,100.00
2023-02-25T02:34:19.299Z,100.00
2023-02-25T02:37:11.530Z,100.00
2023-02-25T02:40:08.987Z,100.00
2023-02-25T02:42:51.657Z,100.00
2023-02-25T02:45:20.476Z,100.00
2023-02-25T02:47:50.992Z,100.00
2023-02-25T02:50:38.330Z,100.00
2023-02-25T02:53:13.975Z,100.00
2023-02-25T02:55:48.076Z,100.00
2023-02-25T02:58:21.681Z,100.00
2023-02-25T03:00:50.334Z,100.00
2023-02-25T03:03:20.068Z,100.00
2023-02-25T03:05:49.273Z,100.00
2023-02-25T03:08:20.205Z,100.00
2023-02-25T03:10:46.994Z,100.00
2023-02-25T03:13:15.347Z,100.00
2023-02-25T03:15:42.030Z,100.00
2023-02-25T03:18:30.799Z,100.00
2023-02-25T03:20:57.738Z,100.00
2023-02-25T03:23:32.056Z,100.00
2023-02-25T03:26:11.503Z,100.00
2023-02-25T03:28:38.147Z,100.00
2023-02-25T03:31:11.022Z,100.00
2023-02-25T03:33:48.199Z,100.00
2023-02-25T03:36:33.784Z,100.00
2023-02-25T03:39:09.289Z,100.00
2023-02-25T03:41:38.587Z,100.00
2023-02-25T03:44:08.362Z,100.00
2023-02-25T03:46:37.763Z,100.00
2023-02-25T03:49:05.661Z,100.00
2023-02-25T03:51:35.519Z,100.00
2023-02-25T03:54:02.485Z,100.00
2023-02-25T03:56:49.601Z,100.00
2023-02-25T03:59:17.854Z,100.00
2023-02-25T04:01:48.201Z,100.00
2023-02-25T04:04:14.836Z,100.00
2023-02-25T04:06:44.716Z,100.00
2023-02-25T04:09:13.463Z,100.00
2023-02-25T04:11:41.160Z,100.00
2023-02-25T04:14:07.943Z,100.00
2023-02-25T04:16:39.340Z,100.00
2023-02-25T04:19:08.364Z,100.00
2023-02-25T04:21:36.250Z,100.00
2023-02-25T04:24:06.123Z,100.00
2023-02-25T04:26:33.721Z,100.00
2023-02-25T04:29:03.436Z,100.00
2023-02-25T04:31:30.622Z,100.00
2023-02-25T04:33:57.611Z,100.00
2023-02-25T04:36:26.486Z,100.00
2023-02-25T04:38:53.338Z,100.00
2023-02-25T04:41:20.020Z,100.00
2023-02-25T04:43:46.735Z,100.00
2023-02-25T04:46:13.558Z,100.00
2023-02-25T04:48:40.498Z,100.00
2023-02-25T04:51:07.285Z,100.00
2023-02-25T04:53:34.402Z,100.00
2023-02-25T04:56:03.021Z,100.00
2023-02-25T04:58:32.536Z,100.00
2023-02-25T05:01:03.430Z,100.00
2023-02-25T05:03:30.709Z,100.00
2023-02-25T05:05:58.481Z,100.00
2023-02-25T05:08:28.611Z,100.00
2023-02-25T05:10:55.245Z,100.00
2023-02-25T05:13:22.183Z,100.00
2023-02-25T05:16:08.916Z,100.00
2023-02-25T05:18:39.755Z,100.00
2023-02-25T05:21:11.689Z,100.00
2023-02-25T05:23:39.316Z,100.00
2023-02-25T05:26:06.089Z,100.00
2023-02-25T05:28:33.461Z,100.00
2023-02-25T05:31:03.406Z,100.00
2023-02-25T05:33:36.131Z,100.00
2023-02-25T05:36:07.775Z,100.00
2023-02-25T05:38:34.528Z,100.00
2023-02-25T05:41:01.246Z,100.00
2023-02-25T05:43:27.922Z,100.00
2023-02-25T05:45:59.313Z,100.00
2023-02-25T05:48:25.909Z,100.00
2023-02-25T05:51:03.363Z,100.00
2023-02-25T05:53:30.828Z,100.00
2023-02-25T05:55:57.564Z,100.00
2023-02-25T05:58:25.201Z,100.00
2023-02-25T06:00:54.096Z,100.00
2023-02-25T06:03:20.927Z,100.00
2023-02-25T06:05:48.097Z,100.00
2023-02-25T06:08:15.255Z,100.00
2023-02-25T06:10:41.869Z,100.00
2023-02-25T06:13:08.890Z,100.00
2023-02-25T06:15:39.676Z,100.00
2023-02-25T06:18:13.571Z,100.00
2023-02-25T06:20:40.221Z,100.00
2023-02-25T06:23:06.912Z,100.00
2023-02-25T06:25:33.604Z,100.00
2023-02-25T06:28:00.846Z,100.00
2023-02-25T06:30:28.816Z,100.00
2023-02-25T06:32:56.745Z,100.00
2023-02-25T06:35:23.717Z,100.00
2023-02-25T06:37:55.898Z,100.00
2023-02-25T06:40:22.891Z,100.00
2023-02-25T06:42:55.178Z,100.00
2023-02-25T06:45:23.475Z,100.00
2023-02-25T06:47:50.204Z,100.00
2023-02-25T06:50:17.006Z,100.00
2023-02-25T06:52:43.776Z,100.00
2023-02-25T06:55:10.464Z,100.00
2023-02-25T06:57:38.586Z,100.00
2023-02-25T07:00:06.908Z,100.00
2023-02-25T07:02:34.772Z,100.00
2023-02-25T07:05:02.259Z,100.00
2023-02-25T07:07:29.298Z,100.00
2023-02-25T07:09:56.121Z,100.00
2023-02-25T07:12:25.823Z,100.00
2023-02-25T07:14:52.639Z,100.00
2023-02-25T07:17:19.512Z,100.00
2023-02-25T07:19:46.784Z,100.00
2023-02-25T07:22:15.761Z,100.00
2023-02-25T07:24:43.200Z,100.00
2023-02-25T07:27:12.661Z,100.00
2023-02-25T07:29:39.640Z,100.00
2023-02-25T07:32:08.588Z,100.00
2023-02-25T07:34:38.514Z,100.00
2023-02-25T07:37:05.595Z,100.00
2023-02-25T07:39:32.517Z,100.00
2023-02-25T07:42:00.817Z,100.00
2023-02-25T07:44:28.956Z,100.00
2023-02-25T07:46:55.603Z,100.00
2023-02-25T07:49:24.727Z,100.00
2023-02-25T07:51:52.279Z,100.00
2023-02-25T07:54:21.051Z,100.00
2023-02-25T07:56:50.856Z,100.00
2023-02-25T07:59:18.655Z,100.00
2023-02-25T08:01:45.408Z,100.00
2023-02-25T08:04:12.104Z,100.00
2023-02-25T08:06:39.573Z,100.00
2023-02-25T08:09:10.486Z,100.00
2023-02-25T08:11:37.603Z,100.00
2023-02-25T08:14:05.315Z,100.00
2023-02-25T08:16:32.327Z,100.00
2023-02-25T08:18:59.230Z,100.00
2023-02-25T08:21:26.455Z,100.00
2023-02-25T08:23:54.664Z,100.00
2023-02-25T08:26:21.979Z,100.00
2023-02-25T08:28:49.700Z,100.00
2023-02-25T08:31:17.301Z,100.00
2023-02-25T08:33:48.813Z,100.00
2023-02-25T08:36:20.263Z,100.00
2023-02-25T08:38:47.455Z,100.00
2023-02-25T08:41:14.143Z,100.00
2023-02-25T08:43:41.034Z,100.00
2023-02-25T08:46:07.844Z,100.00
2023-02-25T08:48:36.095Z,100.00
2023-02-25T08:51:07.733Z,99.95
2023-02-25T08:53:38.971Z,99.90
2023-02-25T08:56:11.084Z,99.56
2023-02-25T08:58:38.891Z,99.47
2023-02-25T09:01:13.111Z,99.75
2023-02-25T09:04:02.719Z,99.27
2023-02-25T09:06:29.778Z,99.14
2023-02-25T09:08:57.277Z,98.89
2023-02-25T09:11:25.500Z,98.30
2023-02-25T09:13:53.871Z,96.94
2023-02-25T09:16:20.758Z,94.65
2023-02-25T09:18:48.525Z,94.93
2023-02-25T09:21:15.618Z,93.89
2023-02-25T09:23:43.178Z,91.23
2023-02-25T09:26:09.906Z,87.02
2023-02-25T09:28:36.631Z,83.51
2023-02-25T09:31:03.911Z,78.51
2023-02-25T09:33:31.969Z,74.20
2023-02-25T09:36:09.378Z,71.80
2023-02-25T09:38:36.684Z,68.15
2023-02-25T09:41:10.636Z,65.98
2023-02-25T09:43:39.660Z,64.27
2023-02-25T09:46:09.375Z,62.60
2023-02-25T09:48:39.249Z,60.27
2023-02-25T09:51:23.596Z,58.97
2023-02-25T09:54:17.887Z,58.13
2023-02-25T09:56:44.873Z,57.03
2023-02-25T09:59:14.770Z,55.55
2023-02-25T10:02:20.004Z,54.37
2023-02-25T10:05:23.872Z,51.98
2023-02-25T10:08:09.540Z,51.09
2023-02-25T10:10:46.550Z,49.99
2023-02-25T10:13:44.264Z,48.32
2023-02-25T10:16:20.547Z,46.68
2023-02-25T10:19:06.206Z,45.93
2023-02-25T10:22:16.557Z,44.16
2023-02-25T10:24:46.002Z,44.14
2023-02-25T10:27:20.603Z,45.27
2023-02-25T10:29:55.379Z,46.91
2023-02-25T10:32:27.146Z,48.19
2023-02-25T10:34:57.426Z,48.97
2023-02-25T10:37:34.544Z,49.19
2023-02-25T10:40:04.758Z,49.70
2023-02-25T10:42:31.815Z,49.61
2023-02-25T10:45:01.393Z,50.02
2023-02-25T10:47:33.001Z,49.20
2023-02-25T10:50:15.471Z,48.65
2023-02-25T10:52:53.868Z,48.43
2023-02-25T10:55:43.925Z,48.04
2023-02-25T10:58:40.408Z,47.79
2023-02-25T11:01:15.219Z,46.82
2023-02-25T11:04:04.983Z,46.38
2023-02-25T11:06:36.388Z,45.47
2023-02-25T11:09:27.320Z,45.19
2023-02-25T11:12:01.682Z,45.84
2023-02-25T11:14:32.970Z,46.77
2023-02-25T11:17:03.639Z,48.93
2023-02-25T11:19:42.706Z,50.96
2023-02-25T11:22:31.468Z,53.20
2023-02-25T11:25:00.357Z,55.04
2023-02-25T11:27:39.130Z,56.68
2023-02-25T11:30:14.060Z,58.36
2023-02-25T11:32:47.945Z,59.51
2023-02-25T11:35:19.740Z,60.52
2023-02-25T11:37:49.425Z,61.34
2023-02-25T11:40:22.495Z,61.98
2023-02-25T11:42:59.901Z,62.62
2023-02-25T11:45:31.716Z,63.45
2023-02-25T11:47:58.719Z,64.14
2023-02-25T11:50:38.390Z,64.20
2023-02-25T11:53:28.754Z,64.35
2023-02-25T11:56:01.586Z,64.33
2023-02-25T11:58:49.655Z,64.54
2023-02-25T12:01:38.839Z,64.48
2023-02-25T12:04:37.798Z,64.51
2023-02-25T12:07:10.688Z,65.33
2023-02-25T12:09:44.660Z,66.22
2023-02-25T12:12:34.410Z,67.26
2023-02-25T12:15:20.134Z,68.29
2023-02-25T12:20:45.967Z,70.30
2023-02-25T12:23:27.961Z,71.10
2023-02-25T12:26:04.002Z,71.98
2023-02-25T12:28:43.753Z,72.81
2023-02-25T12:31:34.895Z,73.91
2023-02-25T12:34:22.798Z,74.79
2023-02-25T12:37:17.550Z,76.00
2023-02-25T12:40:28.383Z,76.75
2023-02-25T12:43:34.043Z,77.80
2023-02-25T12:46:39.238Z,78.62
2023-02-25T12:49:20.124Z,79.26
2023-02-25T12:51:55.841Z,79.78
2023-02-25T12:54:27.828Z,79.86
2023-02-25T12:57:16.672Z,79.96
2023-02-25T13:00:07.483Z,79.96
2023-02-25T13:02:44.370Z,80.09
2023-02-25T13:05:37.868Z,80.24
2023-02-25T13:08:04.751Z,80.74
2023-02-25T13:10:53.938Z,81.11
2023-02-25T13:13:51.529Z,81.26
2023-02-25T13:16:47.474Z,81.19
2023-02-25T13:19:47.400Z,81.17
2023-02-25T13:22:39.047Z,81.30
2023-02-25T13:25:19.172Z,81.57
2023-02-25T13:28:00.433Z,81.93
2023-02-25T13:30:40.341Z,82.15
2023-02-25T13:33:41.526Z,82.73
2023-02-25T13:36:18.438Z,83.57
2023-02-25T13:39:03.734Z,84.14
2023-02-25T13:41:36.438Z,84.81
2023-02-25T13:44:15.010Z,85.53
2023-02-25T13:47:09.534Z,86.05
2023-02-25T13:50:01.149Z,86.63
2023-02-25T13:52:36.476Z,87.12
2023-02-25T13:55:14.383Z,87.74
2023-02-25T13:57:45.010Z,87.95
2023-02-25T14:00:41.364Z,88.25
2023-02-25T14:03:46.085Z,89.01
2023-02-25T14:06:37.552Z,89.50
2023-02-25T14:09:28.325Z,90.10
2023-02-25T14:12:23.973Z,90.56
2023-02-25T14:14:55.007Z,91.09
2023-02-25T14:18:04.301Z,91.50
2023-02-25T14:20:39.840Z,92.72
2023-02-25T14:23:12.543Z,94.12
2023-02-25T14:26:37.308Z,95.66
2023-02-25T14:29:41.446Z,97.31
2023-02-25T14:32:35.862Z,98.33
2023-02-25T14:35:24.820Z,99.46
2023-02-25T14:38:17.465Z,99.98
2023-02-25T14:41:19.096Z,100.00
2023-02-25T14:43:45.980Z,100.00
2023-02-25T14:46:30.608Z,100.00
2023-02-25T14:49:03.821Z,100.00
2023-02-25T14:51:50.229Z,100.00
2023-02-25T14:54:35.298Z,100.00
2023-02-25T14:57:14.786Z,100.00
2023-02-25T15:00:13.852Z,100.00
2023-02-25T15:03:23.357Z,100.00
2023-02-25T15:06:33.925Z,100.00
2023-02-25T15:09:23.416Z,100.00
2023-02-25T15:11:56.180Z,100.00
2023-02-25T15:14:58.457Z,100.00
2023-02-25T15:17:32.496Z,100.00
2023-02-25T15:20:09.216Z,100.00
2023-02-25T15:22:41.329Z,100.00
2023-02-25T15:25:20.302Z,100.00
2023-02-25T15:27:56.777Z,100.00
2023-02-25T15:30:25.064Z,100.00
2023-02-25T15:32:52.796Z,100.00
2023-02-25T15:35:22.424Z,100.00
2023-02-25T15:37:49.413Z,100.00
2023-02-25T15:40:16.031Z,100.00
2023-02-25T15:42:53.632Z,100.00
2023-02-25T15:45:27.311Z,100.00
2023-02-25T15:48:06.873Z,100.00
2023-02-25T15:50:43.392Z,100.00
2023-02-25T15:53:10.992Z,100.00
2023-02-25T15:55:42.542Z,100.00
2023-02-25T15:58:24.604Z,100.00
2023-02-25T16:00:55.050Z,100.00
2023-02-25T16:03:30.733Z,100.00
2023-02-25T16:06:01.685Z,100.00
2023-02-25T16:08:30.937Z,100.00
2023-02-25T16:10:57.863Z,100.00
2023-02-25T16:13:32.842Z,100.00
2023-02-25T16:15:59.599Z,100.00
2023-02-25T16:18:35.744Z,100.00
2023-02-25T16:21:07.725Z,100.00
2023-02-25T16:23:38.592Z,100.00
2023-02-25T16:26:13.393Z,100.00
2023-02-25T16:28:53.493Z,100.00
2023-02-25T16:31:33.067Z,100.00
2023-02-25T16:34:17.229Z,100.00
2023-02-25T16:37:02.867Z,100.00
2023-02-25T16:39:29.684Z,100.00
2023-02-25T16:42:04.204Z,100.00
2023-02-25T16:44:35.633Z,100.00
2023-02-25T16:47:04.095Z,100.00
2023-02-25T16:49:32.177Z,100.00
2023-02-25T16:51:58.862Z,100.00
2023-02-25T16:54:35.555Z,100.00
2023-02-25T16:57:06.271Z,100.00
2023-02-25T16:59:34.896Z,100.00
2023-02-25T17:02:13.924Z,100.00
2023-02-25T17:04:51.884Z,100.00
2023-02-25T17:07:27.386Z,100.00
2023-02-25T17:09:55.879Z,100.00
2023-02-25T17:12:47.020Z,100.00
2023-02-25T17:15:29.219Z,100.00
2023-02-25T17:18:03.067Z,100.00
2023-02-25T17:20:31.931Z,100.00
2023-02-25T17:22:59.106Z,100.00
2023-02-25T17:25:30.964Z,100.00
2023-02-25T17:27:59.579Z,100.00
2023-02-25T17:30:41.126Z,100.00
2023-02-25T17:33:17.742Z,100.00
2023-02-25T17:35:45.419Z,100.00
2023-02-25T17:38:16.671Z,100.00
2023-02-25T17:40:44.759Z,100.00
2023-02-25T17:43:26.058Z,100.00
2023-02-25T17:45:55.471Z,100.00
2023-02-25T17:48:28.210Z,100.00
2023-02-25T17:50:59.513Z,100.00
2023-02-25T17:53:50.169Z,100.00
2023-02-25T17:56:34.837Z,100.00
2023-02-25T17:59:14.116Z,100.00
2023-02-25T18:01:50.530Z,100.00
2023-02-25T18:04:38.366Z,100.00
2023-02-25T18:07:33.993Z,100.00
2023-02-25T18:10:01.197Z,100.00
2023-02-25T18:12:35.865Z,100.00
2023-02-25T18:15:17.574Z,100.00
2023-02-25T18:17:54.893Z,100.00
2023-02-25T18:20:37.662Z,100.00
2023-02-25T18:23:08.356Z,100.00
2023-02-25T18:25:38.063Z,100.00
2023-02-25T18:28:09.382Z,100.00
2023-02-25T18:30:37.089Z,100.00
2023-02-25T18:33:04.470Z,100.00
2023-02-25T18:35:31.389Z,100.00
2023-02-25T18:37:58.695Z,100.00
2023-02-25T18:40:31.942Z,100.00
2023-02-25T18:42:58.698Z,100.00
2023-02-25T18:45:26.422Z,100.00
2023-02-25T18:47:54.408Z,100.00
2023-02-25T18:50:21.088Z,100.00
2023-02-25T18:52:47.732Z,100.00
2023-02-25T18:55:26.671Z,100.00
2023-02-25T18:57:53.765Z,100.00
2023-02-25T19:00:22.008Z,100.00
2023-02-25T19:02:50.794Z,100.00
2023-02-25T19:05:18.885Z,100.00
2023-02-25T19:07:45.496Z,100.00
2023-02-25T19:10:20.624Z,100.00
2023-02-25T19:12:49.041Z,100.00
2023-02-25T19:15:19.511Z,100.00
2023-02-25T19:17:47.323Z,100.00
2023-02-25T19:20:17.878Z,100.00
2023-02-25T19:22:46.909Z,100.00
2023-02-25T19:25:29.754Z,100.00
2023-02-25T19:27:57.009Z,100.00
2023-02-25T19:30:25.690Z,100.00
2023-02-25T19:32:55.982Z,100.00
2023-02-25T19:35:23.671Z,100.00
2023-02-25T19:37:50.236Z,100.00
2023-02-25T19:40:17.470Z,100.00
2023-02-25T19:42:44.351Z,100.00
2023-02-25T19:45:13.739Z,100.00
2023-02-25T19:47:40.683Z,100.00
2023-02-25T19:50:11.623Z,100.00
2023-02-25T19:52:39.196Z,100.00
2023-02-25T19:55:06.782Z,100.00
2023-02-25T19:57:34.029Z,100.00
2023-02-25T20:00:00.701Z,100.00
2023-02-25T20:02:27.438Z,100.00
2023-02-25T20:04:54.037Z,100.00
2023-02-25T20:07:21.009Z,100.00
2023-02-25T20:09:48.310Z,100.00
2023-02-25T20:12:18.769Z,100.00
2023-02-25T20:14:46.602Z,100.00
2023-02-25T20:17:13.411Z,100.00
2023-02-25T20:19:41.438Z,100.00
2023-02-25T20:22:09.225Z,100.00
2023-02-25T20:24:36.302Z,100.00
2023-02-25T20:27:03.183Z,100.00
2023-02-25T20:29:30.157Z,100.00
2023-02-25T20:31:57.022Z,100.00
2023-02-25T20:34:25.786Z,100.00
2023-02-25T20:37:18.936Z,100.00
2023-02-25T20:39:47.332Z,100.00
2023-02-25T20:42:17.586Z,100.00
2023-02-25T20:44:44.397Z,100.00
2023-02-25T20:47:22.864Z,100.00
2023-02-25T20:49:51.772Z,100.00
2023-02-25T20:52:19.384Z,100.00
2023-02-25T20:54:46.294Z,100.00
2023-02-25T20:57:15.364Z,100.00
2023-02-25T20:59:42.585Z,100.00
2023-02-25T21:02:09.695Z,100.00
2023-02-25T21:04:37.665Z,100.00
2023-02-25T21:07:04.428Z,100.00
2023-02-25T21:09:33.157Z,100.00
2023-02-25T21:12:01.135Z,100.00
2023-02-25T21:14:28.061Z,100.00
2023-02-25T21:16:57.318Z,100.00
2023-02-25T21:19:26.202Z,100.00
2023-02-25T21:21:57.417Z,100.00
2023-02-25T21:24:26.694Z,100.00
2023-02-25T21:26:54.061Z,100.00
2023-02-25T21:29:21.755Z,100.00
2023-02-25T21:31:49.170Z,100.00
2023-02-25T21:34:17.391Z,100.00
2023-02-25T21:36:44.914Z,100.00
2023-02-25T21:39:11.950Z,100.00
2023-02-25T21:41:43.211Z,100.00
2023-02-25T21:44:12.789Z,100.00
2023-02-25T21:46:40.190Z,100.00
2023-02-25T21:49:07.124Z,100.00
2023-02-25T21:51:35.995Z,100.00
2023-02-25T21:54:03.051Z,100.00
2023-02-25T21:56:30.251Z,100.00
2023-02-25T21:58:58.993Z,100.00
2023-02-25T22:01:45.914Z,100.00
2023-02-25T22:04:13.365Z,100.00
2023-02-25T22:06:42.501Z,100.00
2023-02-25T22:09:10.137Z,100.00
2023-02-25T22:11:37.213Z,100.00
2023-02-25T22:14:06.273Z,100.00
2023-02-25T22:16:35.101Z,100.00
2023-02-25T22:19:02.171Z,100.00
2023-02-25T22:21:30.976Z,100.00
2023-02-25T22:23:59.311Z,100.00
2023-02-25T22:26:32.065Z,100.00
2023-02-25T22:29:01.171Z,100.00
2023-02-25T22:31:28.192Z,100.00
2023-02-25T22:33:55.432Z,100.00
2023-02-25T22:36:22.765Z,100.00
2023-02-25T22:38:50.347Z,100.00
2023-02-25T22:41:25.329Z,100.00
2023-02-25T22:43:52.217Z,100.00
2023-02-25T22:46:27.663Z,100.00
2023-02-25T22:48:54.753Z,100.00
2023-02-25T22:51:26.316Z,100.00
2023-02-25T22:53:53.569Z,100.00
2023-02-25T22:56:20.335Z,100.00
2023-02-25T22:58:47.627Z,100.00
2023-02-25T23:01:15.636Z,100.00
2023-02-25T23:03:43.486Z,100.00
2023-02-25T23:06:11.023Z,100.00
2023-02-25T23:08:38.519Z,100.00
2023-02-25T23:11:10.822Z,100.00
2023-02-25T23:13:45.299Z,100.00
2023-02-25T23:16:16.141Z,100.00
2023-02-25T23:18:43.971Z,100.00
2023-02-25T23:21:15.723Z,100.00
2023-02-25T23:23:42.940Z,100.00
2023-02-25T23:26:11.696Z,100.00
2023-02-25T23:28:39.307Z,100.00
2023-02-25T23:31:18.661Z,100.00
2023-02-25T23:33:45.682Z,100.00
2023-02-25T23:36:12.446Z,100.00
2023-02-25T23:38:39.112Z,100.00
2023-02-25T23:41:07.639Z,100.00
2023-02-25T23:43:34.638Z,100.00
2023-02-25T23:46:06.448Z,100.00
2023-02-25T23:48:33.343Z,100.00
2023-02-25T23:51:05.075Z,100.00
2023-02-25T23:53:32.728Z,100.00
2023-02-25T23:56:04.925Z,100.00
2023-02-25T23:58:31.622Z,100.00
